Time;durP1;ratioP1;P1;durP2;ratioP2;P2;SDS_P1;SDS_P2;PMS_P1;PMS_P2;Temp;Humidity;BMP_temperature;BMP_pressure;BME280_temperature;BME280_humidity;BME280_pressure;Samples;Min_cycle;Max_cycle;Signal;HPM_P1;HPM_P2
2022/05/03 03:24:26;;;;;;;;;;;;;;;;;;;;;
2022/05/03 03:34:27;;;;;;;10.65;4.32;;;15.60;99.90;;;;;;6182954;23;20019;-87
2022/05/03 03:37:59;;;;;;;;;;;;;;;;;;;;;
2022/05/03 06:35:19;;;;;;;8.40;2.55;;;37.70;49.70;;;;;;6153991;23;20017;-82
2022/05/03 06:38:45;;;;;;;;;;;;;;;;;;;;;
2022/05/03 06:49:06;;;;;;;10.25;2.20;;;38.90;46.10;;;;;;6183296;23;20024;-85
2022/05/03 06:51:50;;;;;;;5.05;2.33;;;38.20;46.10;;;;;;6217595;22;20008;-81
2022/05/03 06:54:21;;;;;;;8.43;2.50;;;37.60;46.10;;;;;;6306267;22;20099;-84
2022/05/03 06:57:15;;;;;;;14.70;2.60;;;36.20;46.80;;;;;;6307860;22;20041;-83
2022/05/03 06:59:49;;;;;;;10.05;2.95;;;34.90;47.90;;;;;;6307966;22;19995;-86
2022/05/03 07:02:39;;;;;;;7.15;2.25;;;34.50;49.00;;;;;;6307944;22;20345;-81
2022/05/03 07:05:07;;;;;;;6.90;2.83;;;33.80;49.00;;;;;;6280080;22;19999;-85
2022/05/03 07:07:47;;;;;;;7.30;2.20;;;32.00;51.50;;;;;;6307226;22;20019;-85
2022/05/03 07:10:39;;;;;;;4.90;2.07;;;31.60;52.40;;;;;;6280603;22;20031;-82
2022/05/03 07:13:05;;;;;;;;;;;31.40;52.60;;;;;;6308643;22;20682;-83
2022/05/03 07:15:49;;;;;;;;;;;;;;;;;;;;;
2022/05/03 07:24:24;;;;;;;9.43;2.53;;;34.90;49.20;;;;;;6307764;22;20532;-82
2022/05/03 07:26:59;;;;;;;8.13;2.20;;;37.20;46.90;;;;;;6307940;22;20015;-83
2022/05/03 07:29:27;;;;;;;6.43;2.50;;;37.50;46.00;;;;;;6307111;22;20005;-81
2022/05/03 07:31:59;;;;;;;13.63;2.80;;;37.50;46.20;;;;;;6279034;22;20014;-85
2022/05/03 07:34:41;;;;;;;;;;;;;;;;;;;;;
2022/05/03 07:38:21;;;;;;;;;;;;;;;;;;;;;
2022/05/03 07:40:49;;;;;;;2.80;1.88;;;37.80;45.00;;;;;;6290677;22;20378;-84
2022/05/03 07:43:21;;;;;;;4.53;2.20;;;40.40;43.40;;;;;;6306936;22;20415;-86
2022/05/03 07:45:50;;;;;;;6.55;1.77;;;41.40;41.60;;;;;;6307303;22;20061;-82
2022/05/03 07:48:19;;;;;;;3.60;2.08;;;41.90;41.30;;;;;;6306811;22;20387;-80
2022/05/03 07:50:51;;;;;;;4.47;1.75;;;42.90;39.80;;;;;;6279911;22;20010;-83
2022/05/03 07:53:44;;;;;;;4.20;2.00;;;42.70;39.50;;;;;;6307534;22;20003;-84
2022/05/03 07:56:12;;;;;;;7.10;2.10;;;43.30;38.60;;;;;;6268017;22;20015;-85
2022/05/03 07:58:46;;;;;;;3.83;1.90;;;42.40;38.50;;;;;;6279164;22;20082;-84
2022/05/03 08:01:15;;;;;;;3.97;1.98;;;41.80;38.70;;;;;;6306800;22;19996;-81
2022/05/03 08:03:44;;;;;;;6.32;2.30;;;41.50;38.70;;;;;;6306837;22;20076;-82
2022/05/03 08:06:15;;;;;;;5.90;1.77;;;41.70;38.00;;;;;;6306218;22;19999;-83
2022/05/03 08:08:43;;;;;;;5.78;2.00;;;41.70;38.40;;;;;;6305142;22;20394;-82
2022/05/03 08:11:16;;;;;;;11.05;2.05;;;42.40;37.20;;;;;;6306037;22;20037;-81
2022/05/03 08:13:45;;;;;;;10.57;1.95;;;41.90;38.00;;;;;;6279607;22;19999;-82
2022/05/03 08:16:31;;;;;;;8.55;2.10;;;42.20;38.00;;;;;;6277969;22;20015;-83
2022/05/03 08:19:10;;;;;;;9.68;1.90;;;42.90;37.40;;;;;;6306102;22;20309;-82
2022/05/03 08:21:46;;;;;;;9.20;2.20;;;43.10;36.60;;;;;;6304960;22;20422;-82
2022/05/03 08:24:21;;;;;;;5.50;2.38;;;41.80;36.70;;;;;;6306561;22;19999;-82
2022/05/03 08:27:00;;;;;;;7.07;1.83;;;41.40;37.30;;;;;;6306579;22;20420;-82
2022/05/03 08:29:31;;;;;;;10.90;1.88;;;41.20;37.40;;;;;;6307236;22;20011;-86
2022/05/03 08:32:01;;;;;;;4.45;1.90;;;40.90;37.30;;;;;;6307069;22;20002;-85
2022/05/03 08:34:38;;;;;;;8.98;2.00;;;40.00;37.40;;;;;;6306936;22;20010;-82
2022/05/03 08:42:35;;;;;;;7.93;2.03;;;34.80;41.70;;;;;;6308707;22;20018;-81
2022/05/03 08:45:16;;;;;;;4.30;1.60;;;33.00;42.80;;;;;;6308969;22;19996;-82
2022/05/03 08:47:46;;;;;;;6.75;2.00;;;31.90;43.20;;;;;;6307669;22;20006;-82
2022/05/03 09:50:23;;;;;;;6.60;2.95;;;27.90;53.00;;;;;;6307008;22;20019;-86
2022/05/03 09:52:55;;;;;;;;;;;28.00;53.50;;;;;;6307929;22;19999;-86
2022/05/03 09:55:32;;;;;;;;;;;28.00;53.10;;;;;;6307477;22;19934;-85
2022/05/03 09:58:07;;;;;;;7.40;3.00;;;27.60;52.80;;;;;;6306727;22;19961;-85
2022/05/03 10:00:53;;;;;;;9.73;2.97;;;27.60;53.60;;;;;;6279097;22;19999;-83
2022/05/03 10:03:46;;;;;;;14.50;3.15;;;27.40;53.70;;;;;;6279627;22;20367;-85
2022/05/03 10:06:18;;;;;;;9.20;2.75;;;27.30;54.60;;;;;;6300780;22;20317;-82
2022/05/03 10:08:46;;;;;;;11.23;2.97;;;27.00;55.70;;;;;;6278938;22;20447;-82
2022/05/03 10:11:16;;;;;;;13.80;3.13;;;26.90;56.60;;;;;;6306509;22;19999;-84
2022/05/03 10:13:42;;;;;;;6.05;2.90;;;26.70;56.40;;;;;;6306673;22;20359;-85
2022/05/03 10:22:22;;;;;;;15.07;3.00;;;26.20;56.90;;;;;;6299373;22;20022;-82
2022/05/03 10:24:59;;;;;;;9.43;2.90;;;26.30;57.80;;;;;;6308415;22;20184;-86
2022/05/03 10:27:47;;;;;;;4.95;2.70;;;26.40;58.90;;;;;;6308185;22;20013;-84
2022/05/03 10:30:20;;;;;;;6.00;2.60;;;26.30;59.30;;;;;;6308518;22;19995;-82
2022/05/03 10:33:24;;;;;;;7.78;2.38;;;26.20;59.00;;;;;;6308336;22;19999;-82
2022/05/03 10:35:53;;;;;;;9.48;2.70;;;26.30;58.60;;;;;;6280602;22;20262;-85
2022/05/03 10:38:43;;;;;;;6.15;3.00;;;26.50;58.30;;;;;;6307903;22;20011;-85
2022/05/03 10:41:11;;;;;;;10.45;2.88;;;26.60;58.40;;;;;;6308245;22;19999;-82
2022/05/03 10:43:40;;;;;;;12.18;2.58;;;26.70;57.80;;;;;;6308137;22;20455;-84
2022/05/03 10:46:33;;;;;;;12.63;2.83;;;26.60;58.00;;;;;;6308358;22;20000;-86
2022/05/03 10:56:27;;;;;;;4.13;2.33;;;26.20;57.30;;;;;;6308618;22;20007;-81
